Main page
METAR-TAF:

METAR-TAF

Airports :

Cherif Al Idrissi Airport

Al Hoceima, Morocco

latitude: 35-11N, longitude: 003-51W, elevation: 27 m

Current weather observation

The report was made 18 minutes ago, at 20:00 UTC
Wind 4 kt from the South/Southeast, varying between East/Southeast and South/Southwest
Temperature 13°C
Humidity 62%
Pressure 1023 hPa
Visibility 10 km or more
Few clouds at a height of 4000 ft

METAR: GMTA 212000Z 16004KT 110V210 9999 FEW040 13/06 Q1023 NOSIG

Time: 21:18 (20:18 UTC)

Forecast

The report was made 3 hours and 18 minutes ago, at 17:00 UTC
Forecast valid from 21 at 18 UTC to 22 at 24 UTC
Wind 9 kt from the East
Visibility 10 km or more
Few clouds at a height of 4000 ft

TAF: GMTA 211700Z 2118/2224 08009KT 9999 FEW040

Weather observations and forecasts of more than 4000 airports (METAR and TAF reports).

The available stations are represented by yellow and red dots on the map.

Hover mouse over dot to see the name of the station.

Then click to see weather observations and forecasts.

To change the map : click on the green buttons with a black cross to zoom in, on the green button with a dash to zoom out, or on the green arrows for adjacent maps.


METAR-TAF: